Monterrey Gen Maria, Mexico

9:21 PM EST on August 30, 2016 (GMT -0500)
Gen Mariano Escobedo International | | Change Station

Elev 1270 ft 25.78 °N, 100.11 °W | Updated 40 minutes ago

Mostly Cloudy
Mostly Cloudy
82 °F
Feels Like 85 °F
N
6
Wind Variable Wind from NW

Today
High -- | Low -- °F
--% Chance of Precip.
Yesterday
High -- | Low -- °F
Precip. -- in
Pressure 29.91 in
Visibility 15.0 miles
Clouds Scattered Clouds 5000 ft
Scattered Clouds 8000 ft
Mostly Cloudy 10000 ft
Heat Index 85 °F
Dew Point 66 °F
Humidity 58%
Rainfall 0.00 in
Snow Depth Not available.
7:20 AM 8:01 PM
Waning Crescent, 2% visible
METAR MMMY 310141Z 32005KT 15SM SCT050TCU SCT080 BKN100 28/19 A2991 RMK 8/270 CB/E
Pressure 29.91 in
Visibility 15.0 miles
Clouds Scattered Clouds 5000 ft
Scattered Clouds 8000 ft
Mostly Cloudy 10000 ft
Heat Index 85 °F
Dew Point 66 °F
Humidity 58%
Rainfall 0.00 in
Snow Depth Not available.
7:20 AM 8:01 PM
Waning Crescent, 2% visible
METAR MMMY 310141Z 32005KT 15SM SCT050TCU SCT080 BKN100 28/19 A2991 RMK 8/270 CB/E

10-Day Weather Forecast

No radar image for this location.
×

Almanac

Astronomy

Aug. 30, 2016 Rise Set
Actual Time
Civil Twilight
Nautical Twilight
Astronomical Twilight
Moon
Length of Visible Light
Length of Day
Tomorrow will be .
, % of the Moon is Illuminated

Today's Extremes

Country Highs Country Lows

Community

WunderPhotos

Upload Photos

1,935,997 photos uploaded!

WunderBlog® & News

Nearby

Air Quality

  Air Quality AQ Index Pollutant
Not available.

Snow Depth

Station Depth Elevation

Earthquake Activity

City Distance Mag. Time & Date
Minimum magnitude displayed is 2.5.

Coastal Water Temperatures

Place Temperature

Stations

Nearby Weather Stations

Station Location Temp. Windchill Dew Point Humidity Wind Precip. Elev Updated Type